Time;durP1;ratioP1;P1;durP2;ratioP2;P2;SDS_P1;SDS_P2;PMS_P1;PMS_P2;Temp;Humidity;BMP_temperature;BMP_pressure;BME280_temperature;BME280_humidity;BME280_pressure;Samples;Min_cycle;Max_cycle;Signal;HPM_P1;HPM_P2
2021/06/13 00:01:15;;;;;;;7.60;6.17;;;;;;;17.91;89.82;100916.81;1763715;81;21939;-76
2021/06/13 00:03:42;;;;;;;8.85;6.05;;;;;;;17.87;90.32;100918.05;1732052;81;20997;-74
2021/06/13 00:06:09;;;;;;;9.28;5.78;;;;;;;17.82;90.39;100916.34;1764124;81;20955;-76
2021/06/13 00:08:39;;;;;;;7.30;5.95;;;;;;;17.80;90.38;100923.06;1764013;81;21565;-77
2021/06/13 00:11:06;;;;;;;6.60;5.90;;;;;;;17.76;90.32;100919.06;1764176;81;21021;-76
2021/06/13 00:13:33;;;;;;;9.35;6.17;;;;;;;17.76;90.54;100918.23;1763704;81;21097;-76
2021/06/13 00:16:01;;;;;;;7.95;6.40;;;;;;;17.76;90.80;100923.48;1763906;81;21003;-79
2021/06/13 00:18:28;;;;;;;9.75;6.62;;;;;;;17.73;90.92;100915.41;1763687;81;20954;-76
2021/06/13 00:20:55;;;;;;;6.40;5.75;;;;;;;17.72;91.27;100913.73;1763908;81;20931;-77
2021/06/13 00:23:22;;;;;;;6.42;5.83;;;;;;;17.71;91.55;100920.46;1763856;81;20879;-77
2021/06/13 00:25:49;;;;;;;7.83;6.17;;;;;;;17.73;91.74;100919.83;1763901;81;21114;-76
2021/06/13 00:28:16;;;;;;;7.20;5.75;;;;;;;17.73;91.81;100918.03;1763742;81;21029;-77
2021/06/13 00:30:43;;;;;;;6.00;5.22;;;;;;;17.68;91.99;100912.84;1763790;81;20974;-75
2021/06/13 00:33:10;;;;;;;7.00;5.58;;;;;;;17.65;92.21;100912.64;1763859;81;20974;-77
2021/06/13 00:35:37;;;;;;;6.90;5.42;;;;;;;17.62;92.41;100905.05;1763893;81;21050;-79
2021/06/13 00:38:06;;;;;;;5.85;5.28;;;;;;;17.60;92.60;100896.50;1764067;81;21158;-79
2021/06/13 00:40:34;;;;;;;7.08;5.47;;;;;;;17.60;92.94;100897.81;1763607;81;21506;-77
2021/06/13 00:43:01;;;;;;;7.70;5.87;;;;;;;17.60;93.21;100898.29;1763752;81;20971;-77
2021/06/13 00:45:28;;;;;;;5.80;5.30;;;;;;;17.58;93.14;100895.79;1763813;80;20975;-77
2021/06/13 00:47:55;;;;;;;5.80;4.90;;;;;;;17.57;93.26;100892.02;1764334;81;20926;-77
2021/06/13 00:50:30;;;;;;;5.75;5.08;;;;;;;17.55;93.36;100889.52;1764278;81;21123;-77
2021/06/13 00:53:02;;;;;;;5.85;4.53;;;;;;;17.56;93.39;100889.03;1764476;81;20990;-78
2021/06/13 00:55:31;;;;;;;5.17;4.67;;;;;;;17.54;93.49;100890.47;1763808;81;21490;-78
2021/06/13 00:57:59;;;;;;;6.90;4.80;;;;;;;17.53;93.68;100880.10;1764112;81;20974;-78
2021/06/13 01:00:27;;;;;;;6.05;4.37;;;;;;;17.53;93.67;100882.73;1763970;81;20931;-77
2021/06/13 01:02:56;;;;;;;4.50;4.00;;;;;;;17.53;93.74;100880.10;1763730;81;21172;-78
2021/06/13 01:05:26;;;;;;;5.40;4.37;;;;;;;17.53;93.88;100878.78;1763923;81;20879;-78
2021/06/13 01:08:01;;;;;;;5.10;4.70;;;;;;;17.54;93.98;100872.58;1763843;81;21372;-77
2021/06/13 01:10:39;;;;;;;5.67;4.70;;;;;;;17.52;93.87;100876.64;1764384;81;21624;-79
2021/06/13 01:13:13;;;;;;;4.50;4.10;;;;;;;17.51;93.91;100873.70;1763952;81;21131;-75
2021/06/13 01:16:11;;;;;;;4.35;3.95;;;;;;;17.51;93.94;100871.55;1764158;81;21125;-79
2021/06/13 01:18:50;;;;;;;4.97;4.25;;;;;;;17.49;94.08;100867.74;1763724;81;20974;-77
2021/06/13 01:21:23;;;;;;;4.92;4.33;;;;;;;17.47;94.36;100869.69;1763650;81;20899;-78
2021/06/13 01:24:12;;;;;;;5.20;4.70;;;;;;;17.44;94.41;100855.54;1742695;82;20908;-75
2021/06/13 01:27:19;;;;;;;5.35;4.58;;;;;;;17.43;94.51;100853.39;1742471;82;22419;-77
2021/06/13 01:29:48;;;;;;;5.83;4.40;;;;;;;17.42;94.58;100852.24;1721495;82;21805;-76
2021/06/13 01:32:27;;;;;;;5.10;4.62;;;;;;;17.36;94.54;100850.98;1742478;82;21603;-77
2021/06/13 01:35:03;;;;;;;7.28;5.28;;;;;;;17.32;94.62;100848.80;1742380;82;20940;-78
2021/06/13 01:37:34;;;;;;;13.40;9.90;;;;;;;17.28;94.97;100850.03;1742409;81;21917;-77
2021/06/13 01:40:09;;;;;;;20.08;11.53;;;;;;;17.27;95.61;100849.20;1742552;82;20956;-78
2021/06/13 01:42:42;;;;;;;15.68;10.70;;;;;;;17.27;95.83;100845.75;1742425;82;21139;-78
2021/06/13 01:45:11;;;;;;;15.03;10.32;;;;;;;17.26;95.69;100845.42;1735883;81;21528;-78
2021/06/13 01:47:39;;;;;;;18.82;10.90;;;;;;;17.24;95.66;100840.78;1711303;82;21026;-79
2021/06/13 01:50:07;;;;;;;7.70;6.33;;;;;;;17.24;95.80;100835.53;1742478;82;20971;-77
2021/06/13 01:52:37;;;;;;;12.43;8.00;;;;;;;17.23;95.68;100841.77;1742387;82;20949;-77
2021/06/13 01:55:07;;;;;;;9.70;7.22;;;;;;;17.21;95.54;100834.03;1742206;82;21160;-78
2021/06/13 01:57:35;;;;;;;7.83;6.17;;;;;;;17.21;95.48;100843.20;1742543;82;21023;-78
2021/06/13 02:00:08;;;;;;;7.08;6.03;;;;;;;17.20;95.24;100840.23;1737178;82;20955;-77
2021/06/13 02:02:36;;;;;;;4.70;4.12;;;;;;;17.18;95.17;100841.34;1740397;82;21019;-76
2021/06/13 02:05:05;;;;;;;4.67;4.30;;;;;;;17.18;94.99;100838.72;1742378;82;20944;-76
2021/06/13 02:07:35;;;;;;;5.40;4.87;;;;;;;17.14;94.80;100836.86;1706995;82;21139;-77
2021/06/13 02:10:07;;;;;;;5.15;4.75;;;;;;;17.14;94.86;100837.33;1742250;82;20928;-77
2021/06/13 02:12:42;;;;;;;6.97;4.58;;;;;;;17.13;94.75;100839.16;1741941;82;20928;-78
2021/06/13 02:15:13;;;;;;;7.62;4.65;;;;;;;17.12;94.62;100835.34;1742873;81;20984;-76
2021/06/13 02:17:46;;;;;;;7.40;4.35;;;;;;;17.11;94.51;100829.27;1712004;82;21075;-74
2021/06/13 02:20:14;;;;;;;4.60;4.17;;;;;;;17.09;94.49;100825.97;1743193;82;21118;-76
2021/06/13 02:22:41;;;;;;;4.87;4.15;;;;;;;17.07;94.42;100826.57;1743597;82;21043;-77
2021/06/13 02:25:11;;;;;;;4.60;4.20;;;;;;;17.06;94.56;100821.00;1745429;82;20992;-78
2021/06/13 02:27:39;;;;;;;5.62;4.37;;;;;;;17.06;94.57;100821.48;1745066;82;20944;-75
2021/06/13 02:30:10;;;;;;;4.08;3.70;;;;;;;17.03;94.51;100825.69;1745006;82;21082;-79
2021/06/13 02:32:40;;;;;;;6.25;3.65;;;;;;;16.97;94.63;100825.77;1745183;82;21121;-75
2021/06/13 02:35:10;;;;;;;4.22;3.85;;;;;;;16.96;94.80;100824.58;1745050;82;20897;-74
2021/06/13 02:37:41;;;;;;;5.15;4.05;;;;;;;16.95;94.90;100821.13;1721653;82;21259;-77
2021/06/13 02:40:11;;;;;;;4.92;4.03;;;;;;;16.97;94.90;100811.35;1717054;82;20963;-76
2021/06/13 02:42:38;;;;;;;4.45;3.92;;;;;;;16.99;94.80;100812.03;1744860;82;20951;-75
2021/06/13 02:45:11;;;;;;;5.25;4.00;;;;;;;17.01;94.68;100809.28;1744941;82;21805;-77
2021/06/13 02:47:38;;;;;;;5.95;4.20;;;;;;;17.04;94.52;100818.18;1744919;82;21521;-77
2021/06/13 02:50:09;;;;;;;5.83;4.60;;;;;;;17.05;94.41;100810.64;1744895;82;21087;-78
2021/06/13 02:52:46;;;;;;;6.87;4.25;;;;;;;17.04;94.29;100811.12;1744791;82;21063;-77
2021/06/13 02:55:20;;;;;;;7.05;4.78;;;;;;;17.05;94.29;100807.53;1744924;82;21454;-78
2021/06/13 02:57:59;;;;;;;7.75;5.53;;;;;;;17.06;94.23;100802.65;1744945;82;21748;-76
2021/06/13 03:00:27;;;;;;;6.75;4.67;;;;;;;17.07;94.08;100807.41;1744915;82;21620;-77
2021/06/13 03:02:56;;;;;;;6.30;4.87;;;;;;;17.07;93.76;100808.22;1744887;82;20968;-77
2021/06/13 03:05:26;;;;;;;7.50;4.33;;;;;;;17.09;93.53;100806.78;1744998;82;20984;-78
2021/06/13 03:07:53;;;;;;;4.67;3.67;;;;;;;17.10;93.25;100803.20;1744738;82;20979;-77
2021/06/13 03:10:20;;;;;;;5.03;4.40;;;;;;;17.10;93.06;100796.17;1745024;82;21129;-75
2021/06/13 03:12:48;;;;;;;4.92;3.95;;;;;;;17.11;92.97;100791.25;1744826;82;21574;-77
2021/06/13 03:15:16;;;;;;;5.10;3.98;;;;;;;17.12;92.85;100786.36;1744937;82;20989;-77
2021/06/13 03:17:43;;;;;;;6.80;3.60;;;;;;;17.12;92.64;100787.66;1744854;82;20936;-78
2021/06/13 03:20:11;;;;;;;4.97;3.60;;;;;;;17.14;92.51;100787.51;1744816;82;21055;-76
2021/06/13 03:22:39;;;;;;;6.72;3.72;;;;;;;17.15;92.38;100786.55;1745119;81;21207;-77
2021/06/13 03:25:07;;;;;;;7.53;4.22;;;;;;;17.18;92.41;100784.95;1742342;82;21528;-77
2021/06/13 03:27:35;;;;;;;4.20;3.80;;;;;;;17.20;92.57;100783.05;1742238;82;20978;-78
2021/06/13 03:30:04;;;;;;;5.28;4.40;;;;;;;17.20;92.42;100774.66;1742261;81;20987;-73
2021/06/13 03:32:34;;;;;;;5.78;4.22;;;;;;;17.18;91.80;100771.84;1741959;82;20912;-75
2021/06/13 03:35:01;;;;;;;6.03;4.28;;;;;;;17.13;91.03;100767.04;1742300;82;21113;-73
2021/06/13 03:37:28;;;;;;;5.87;3.47;;;;;;;17.12;90.70;100765.86;1742095;82;21007;-76
2021/06/13 03:39:56;;;;;;;5.05;3.55;;;;;;;17.10;90.26;100763.39;1742267;82;20940;-77
2021/06/13 03:42:24;;;;;;;8.78;3.30;;;;;;;17.11;89.95;100758.47;1742266;82;21007;-72
2021/06/13 03:44:51;;;;;;;9.55;3.60;;;;;;;17.13;89.46;100753.93;1744032;82;21004;-73
2021/06/13 03:47:18;;;;;;;3.40;3.00;;;;;;;17.13;89.03;100755.23;1744806;82;21117;-72
2021/06/13 03:49:46;;;;;;;5.37;3.70;;;;;;;17.16;88.67;100752.81;1744457;82;20956;-73
2021/06/13 03:52:14;;;;;;;6.78;3.95;;;;;;;17.15;88.34;100746.73;1743149;81;21554;-75
2021/06/13 03:54:41;;;;;;;4.78;3.45;;;;;;;17.17;88.14;100753.14;1742646;82;21592;-76
2021/06/13 03:57:08;;;;;;;7.90;3.27;;;;;;;17.17;88.14;100751.83;1742117;82;21007;-76
2021/06/13 03:59:35;;;;;;;3.50;3.20;;;;;;;17.19;88.34;100747.28;1742022;82;21837;-77
2021/06/13 04:02:04;;;;;;;3.92;3.33;;;;;;;17.25;88.09;100755.89;1742307;82;21187;-75
2021/06/13 04:04:39;;;;;;;5.08;3.58;;;;;;;17.28;88.00;100753.82;1742235;82;20948;-75
2021/06/13 04:07:07;;;;;;;5.87;3.55;;;;;;;17.33;87.52;100749.44;1741966;82;21010;-74
2021/06/13 04:09:35;;;;;;;4.12;3.37;;;;;;;17.37;87.48;100748.20;1742401;82;20959;-77
2021/06/13 04:12:06;;;;;;;5.40;3.40;;;;;;;17.40;87.67;100756.61;1711738;82;20928;-77
2021/06/13 04:14:33;;;;;;;9.15;3.85;;;;;;;17.42;87.55;100747.30;1742341;82;20888;-75
2021/06/13 04:17:00;;;;;;;6.70;3.62;;;;;;;17.45;87.50;100754.38;1742250;82;20952;-77
2021/06/13 04:19:27;;;;;;;3.60;3.30;;;;;;;17.51;87.55;100752.16;1742291;82;21107;-77
2021/06/13 04:21:54;;;;;;;4.10;3.50;;;;;;;17.55;87.70;100750.44;1742689;82;20885;-77
2021/06/13 04:24:21;;;;;;;5.10;3.95;;;;;;;17.61;87.54;100745.95;1744568;82;21104;-76
2021/06/13 04:26:48;;;;;;;5.00;3.62;;;;;;;17.63;87.31;100740.06;1744781;82;21055;-75
2021/06/13 04:29:16;;;;;;;6.87;3.85;;;;;;;17.66;87.66;100733.21;1745018;82;21681;-73
2021/06/13 04:31:43;;;;;;;4.03;3.50;;;;;;;17.72;87.66;100726.55;1745049;82;21038;-75
2021/06/13 04:34:10;;;;;;;7.08;3.95;;;;;;;17.77;87.73;100732.20;1745040;82;21018;-77
2021/06/13 04:36:38;;;;;;;3.90;3.50;;;;;;;17.80;87.55;100724.87;1745019;82;21152;-73
2021/06/13 04:39:05;;;;;;;4.12;3.58;;;;;;;17.85;87.55;100729.67;1744952;82;20995;-74
2021/06/13 04:41:34;;;;;;;5.60;3.50;;;;;;;17.89;87.46;100729.72;1745086;82;20935;-75
2021/06/13 04:44:02;;;;;;;4.70;3.98;;;;;;;17.96;87.36;100726.86;1745133;82;20947;-72
2021/06/13 04:46:31;;;;;;;6.17;4.28;;;;;;;18.01;86.86;100729.86;1744962;82;21510;-76
2021/06/13 04:48:58;;;;;;;6.35;4.30;;;;;;;18.06;86.66;100728.12;1744843;82;21791;-73
2021/06/13 04:51:26;;;;;;;3.55;3.25;;;;;;;18.10;86.69;100718.95;1744763;82;20927;-75
2021/06/13 04:54:02;;;;;;;3.60;3.30;;;;;;;18.17;85.98;100720.02;1744732;82;20999;-75
2021/06/13 04:57:00;;;;;;;6.15;3.25;;;;;;;18.25;85.77;100717.48;1744758;82;21463;-73
2021/06/13 04:59:27;;;;;;;3.90;3.60;;;;;;;18.31;85.34;100717.72;1745058;82;21007;-72
2021/06/13 05:01:54;;;;;;;7.35;3.60;;;;;;;18.37;84.86;100712.34;1745020;82;21106;-74
2021/06/13 05:04:23;;;;;;;5.90;3.80;;;;;;;18.41;84.73;100707.94;1744833;82;20928;-76
2021/06/13 05:06:50;;;;;;;3.83;3.10;;;;;;;18.47;84.99;100697.33;1745260;82;20936;-74
2021/06/13 05:09:17;;;;;;;3.40;3.10;;;;;;;18.56;84.83;100697.77;1745021;82;21267;-73
2021/06/13 05:11:45;;;;;;;6.97;3.60;;;;;;;18.62;83.87;100693.70;1745918;82;20969;-76
2021/06/13 05:14:12;;;;;;;4.45;3.30;;;;;;;18.69;83.32;100697.38;1748245;82;21117;-80
2021/06/13 05:16:41;;;;;;;3.95;3.55;;;;;;;18.74;82.56;100690.67;1747925;82;20976;-74
2021/06/13 05:19:09;;;;;;;5.08;3.83;;;;;;;18.81;82.50;100691.72;1748154;82;20916;-73
2021/06/13 05:21:36;;;;;;;6.33;3.80;;;;;;;18.84;81.94;100691.89;1746135;82;20948;-75
2021/06/13 05:24:04;;;;;;;4.60;3.20;;;;;;;18.88;82.45;100690.62;1736702;82;20936;-76
2021/06/13 05:26:31;;;;;;;4.97;3.08;;;;;;;18.95;82.62;100692.98;1732088;82;21076;-75
2021/06/13 05:28:58;;;;;;;3.98;3.55;;;;;;;19.02;81.39;100689.55;1732021;82;20983;-76
2021/06/13 05:31:25;;;;;;;4.12;3.83;;;;;;;19.11;80.21;100686.99;1732024;82;21538;-75
2021/06/13 05:33:53;;;;;;;4.45;3.87;;;;;;;19.15;79.32;100689.62;1732126;82;21443;-73
2021/06/13 05:36:21;;;;;;;4.15;3.33;;;;;;;19.18;79.05;100687.99;1732271;82;21016;-76
2021/06/13 05:38:49;;;;;;;4.10;3.25;;;;;;;19.26;79.24;100677.53;1732267;82;21073;-81
2021/06/13 05:41:15;;;;;;;4.12;3.20;;;;;;;19.35;76.94;100684.00;1732204;82;21038;-80
2021/06/13 05:43:43;;;;;;;3.37;3.08;;;;;;;19.44;75.10;100687.03;1731897;82;20992;-77
2021/06/13 05:46:10;;;;;;;3.25;2.95;;;;;;;19.51;74.73;100672.75;1732038;82;20988;-71
2021/06/13 05:48:38;;;;;;;6.33;2.95;;;;;;;19.57;74.16;100677.37;1709189;82;21039;-76
2021/06/13 05:51:06;;;;;;;5.58;3.45;;;;;;;19.63;74.37;100673.27;1732035;82;21602;-71
2021/06/13 05:53:33;;;;;;;5.22;3.85;;;;;;;19.66;72.86;100670.33;1732002;82;20932;-74
2021/06/13 05:56:00;;;;;;;4.10;3.60;;;;;;;19.67;73.37;100664.09;1732155;82;20989;-72
2021/06/13 05:58:27;;;;;;;4.00;3.60;;;;;;;19.71;74.37;100662.79;1732089;82;21522;-74
2021/06/13 06:00:54;;;;;;;4.20;3.62;;;;;;;19.78;73.73;100663.80;1732303;82;21476;-74
2021/06/13 06:03:22;;;;;;;4.00;3.60;;;;;;;19.85;74.10;100662.16;1732082;82;21140;-74
2021/06/13 06:05:51;;;;;;;4.03;3.40;;;;;;;19.93;73.08;100661.70;1731893;82;20940;-74
2021/06/13 06:08:19;;;;;;;5.00;4.12;;;;;;;19.96;73.24;100665.33;1732130;82;21012;-77
2021/06/13 06:10:49;;;;;;;4.37;3.80;;;;;;;20.01;72.83;100655.61;1732012;82;21456;-76
2021/06/13 06:13:15;;;;;;;5.53;3.42;;;;;;;20.03;73.54;100651.85;1732217;82;21047;-73
2021/06/13 06:15:42;;;;;;;4.60;3.90;;;;;;;20.11;73.78;100651.51;1732023;82;21065;-73
2021/06/13 06:18:09;;;;;;;8.28;3.58;;;;;;;20.18;73.54;100648.07;1732081;82;21482;-84
2021/06/13 06:20:38;;;;;;;5.75;3.70;;;;;;;20.29;73.86;100643.02;1732210;82;21543;-75
2021/06/13 06:23:05;;;;;;;5.83;3.72;;;;;;;20.35;73.44;100639.23;1733874;82;21435;-78
2021/06/13 06:25:32;;;;;;;3.75;3.45;;;;;;;20.42;73.19;100636.24;1744946;82;21522;-73
2021/06/13 06:28:00;;;;;;;3.77;3.42;;;;;;;20.49;73.16;100637.73;1745124;82;21233;-77
2021/06/13 06:30:29;;;;;;;5.40;3.67;;;;;;;20.54;71.20;100641.53;1744952;82;21043;-76
2021/06/13 06:32:56;;;;;;;3.77;3.37;;;;;;;20.56;72.02;100636.08;1744913;82;20986;-73
2021/06/13 06:35:24;;;;;;;3.98;3.58;;;;;;;20.62;72.71;100630.14;1745021;82;20916;-79
2021/06/13 06:37:51;;;;;;;5.12;3.70;;;;;;;20.71;71.81;100633.09;1744904;82;21708;-76
2021/06/13 06:40:21;;;;;;;3.67;3.37;;;;;;;20.76;72.20;100634.75;1745092;82;21972;-76
2021/06/13 06:42:49;;;;;;;5.17;3.77;;;;;;;20.82;71.93;100634.08;1746730;82;20960;-74
2021/06/13 06:45:17;;;;;;;4.00;3.60;;;;;;;20.85;71.95;100620.55;1747062;82;21047;-75
2021/06/13 06:47:43;;;;;;;5.78;3.05;;;;;;;20.95;71.71;100628.27;1746937;82;20971;-74
2021/06/13 06:50:11;;;;;;;4.92;4.05;;;;;;;20.99;68.97;100611.95;1745984;82;20927;-81
2021/06/13 06:52:39;;;;;;;4.35;3.77;;;;;;;21.03;70.31;100613.23;1745020;82;21141;-73
2021/06/13 06:55:07;;;;;;;3.42;3.10;;;;;;;21.15;69.46;100615.55;1744987;82;20928;-77
2021/06/13 06:57:34;;;;;;;3.25;2.87;;;;;;;21.25;69.80;100599.83;1745018;82;22345;-76
2021/06/13 07:00:01;;;;;;;4.78;3.10;;;;;;;21.35;66.14;100609.69;1744886;82;20995;-78
2021/06/13 07:02:28;;;;;;;3.42;3.12;;;;;;;21.36;66.61;100608.70;1744984;82;20980;-79
2021/06/13 07:04:57;;;;;;;3.40;3.10;;;;;;;21.40;67.12;100607.86;1744920;82;21094;-77
2021/06/13 07:07:24;;;;;;;3.60;3.30;;;;;;;21.47;67.08;100603.05;1744928;82;20983;-75
2021/06/13 07:09:52;;;;;;;5.70;2.85;;;;;;;21.56;66.63;100597.22;1744974;82;21489;-78
2021/06/13 07:12:19;;;;;;;5.78;3.00;;;;;;;21.66;67.76;100604.44;1745147;82;20912;-74
2021/06/13 07:14:46;;;;;;;3.42;3.20;;;;;;;21.81;67.34;100606.64;1745151;82;20967;-82
2021/06/13 07:17:13;;;;;;;3.37;3.00;;;;;;;21.95;65.90;100602.46;1745146;82;21770;-78
2021/06/13 07:19:40;;;;;;;4.03;3.45;;;;;;;21.99;64.87;100595.80;1744660;82;21596;-73
2021/06/13 07:22:07;;;;;;;6.25;3.85;;;;;;;22.01;65.86;100603.08;1744930;82;21058;-75
2021/06/13 07:24:34;;;;;;;4.78;3.00;;;;;;;22.07;65.53;100608.98;1743286;82;20896;-74
2021/06/13 07:27:01;;;;;;;3.40;3.10;;;;;;;22.10;64.51;100609.45;1742150;82;20920;-80
2021/06/13 07:29:28;;;;;;;4.50;4.00;;;;;;;22.13;65.49;100601.66;1742305;82;21123;-79
2021/06/13 07:31:55;;;;;;;3.60;3.30;;;;;;;22.14;65.63;100605.43;1742263;82;20885;-82
2021/06/13 07:34:22;;;;;;;3.92;3.52;;;;;;;22.19;66.07;100605.41;1742227;82;20935;-80
2021/06/13 07:36:51;;;;;;;7.00;3.30;;;;;;;22.15;65.51;100601.80;1742177;82;21486;-78
2021/06/13 07:39:18;;;;;;;5.22;3.83;;;;;;;22.20;66.17;100594.67;1742375;82;21597;-79
2021/06/13 07:41:45;;;;;;;4.58;3.70;;;;;;;22.28;66.21;100587.15;1742407;82;21269;-78
2021/06/13 07:44:12;;;;;;;4.70;3.60;;;;;;;22.39;67.08;100591.53;1742287;82;20857;-78
2021/06/13 07:46:39;;;;;;;4.00;3.30;;;;;;;22.47;66.10;100586.16;1742059;82;20936;-77
2021/06/13 07:49:06;;;;;;;3.98;3.62;;;;;;;22.48;66.26;100593.59;1742366;82;21007;-82
2021/06/13 07:51:35;;;;;;;4.42;3.80;;;;;;;22.53;65.27;100589.89;1742291;82;20868;-79
2021/06/13 07:54:02;;;;;;;4.28;3.62;;;;;;;22.58;64.64;100584.41;1742406;82;21131;-81
2021/06/13 07:56:29;;;;;;;4.78;3.27;;;;;;;22.60;65.76;100581.56;1742517;82;20992;-74
2021/06/13 07:58:56;;;;;;;7.03;3.42;;;;;;;22.72;65.49;100581.99;1742468;82;20996;-76
2021/06/13 08:01:24;;;;;;;5.75;3.85;;;;;;;22.78;65.37;100578.62;1742397;82;20956;-76
2021/06/13 08:03:51;;;;;;;3.90;3.52;;;;;;;22.84;66.10;100573.42;1742551;82;20940;-77
2021/06/13 08:06:18;;;;;;;5.37;3.50;;;;;;;22.95;66.03;100580.06;1742575;82;21160;-77
2021/06/13 08:08:45;;;;;;;6.30;3.77;;;;;;;23.07;65.36;100578.62;1742447;82;21265;-79
2021/06/13 08:11:13;;;;;;;5.53;3.50;;;;;;;23.13;64.73;100572.58;1743949;82;21467;-73
2021/06/13 08:13:40;;;;;;;4.75;3.45;;;;;;;23.19;63.73;100575.31;1744678;82;21621;-71
2021/06/13 08:16:07;;;;;;;6.67;3.70;;;;;;;23.23;63.32;100579.71;1744081;82;21573;-74
2021/06/13 08:18:34;;;;;;;3.92;3.35;;;;;;;23.27;62.40;100579.67;1743355;82;21077;-72
2021/06/13 08:21:01;;;;;;;4.75;3.50;;;;;;;23.30;63.41;100581.12;1742305;82;20991;-76
2021/06/13 08:23:32;;;;;;;5.08;3.72;;;;;;;23.34;62.65;100572.63;1743438;81;20950;-72
2021/06/13 08:26:00;;;;;;;5.08;3.37;;;;;;;23.38;62.24;100576.56;1763937;81;20998;-77
2021/06/13 08:28:28;;;;;;;6.33;3.10;;;;;;;23.49;62.40;100575.27;1763439;81;20958;-76
2021/06/13 08:30:55;;;;;;;4.87;3.40;;;;;;;23.66;61.50;100569.56;1763865;81;21179;-75
2021/06/13 08:33:23;;;;;;;5.17;3.37;;;;;;;23.75;60.15;100574.73;1763694;81;20880;-72
2021/06/13 08:35:50;;;;;;;5.05;3.65;;;;;;;23.80;60.15;100566.55;1763716;81;21474;-72
2021/06/13 08:38:18;;;;;;;4.95;3.50;;;;;;;23.84;60.16;100568.30;1763865;81;20970;-80
2021/06/13 08:40:47;;;;;;;5.47;3.87;;;;;;;23.78;59.55;100560.60;1763862;81;20983;-75
2021/06/13 08:43:14;;;;;;;5.30;3.58;;;;;;;23.61;60.12;100571.94;1763886;81;21494;-74
2021/06/13 08:45:42;;;;;;;5.12;3.20;;;;;;;23.55;60.68;100564.74;1763598;81;21037;-70
2021/06/13 08:48:09;;;;;;;3.30;2.95;;;;;;;23.69;60.77;100563.89;1763868;81;20935;-79
2021/06/13 08:50:36;;;;;;;5.58;3.90;;;;;;;23.87;60.43;100563.44;1763841;81;20938;-71
2021/06/13 08:53:05;;;;;;;3.58;3.00;;;;;;;23.96;59.82;100557.03;1764165;81;21446;-75
2021/06/13 08:55:33;;;;;;;5.47;3.55;;;;;;;24.05;59.30;100549.25;1763806;81;21536;-79
2021/06/13 08:58:00;;;;;;;4.05;3.20;;;;;;;24.09;57.99;100558.44;1763959;81;20934;-74
2021/06/13 09:00:30;;;;;;;5.08;3.60;;;;;;;24.00;58.51;100560.09;1763867;81;21093;-73
2021/06/13 09:02:56;;;;;;;4.10;3.15;;;;;;;23.95;58.75;100555.37;1763739;81;20985;-72
2021/06/13 09:05:25;;;;;;;3.83;3.20;;;;;;;24.00;58.15;100552.14;1763743;81;20891;-75
2021/06/13 09:08:01;;;;;;;6.55;3.72;;;;;;;24.08;57.41;100558.64;1763738;81;21115;-76
2021/06/13 09:10:31;;;;;;;6.83;3.35;;;;;;;24.17;58.78;100554.88;1763679;81;21095;-76
2021/06/13 09:13:16;;;;;;;3.55;3.00;;;;;;;24.32;56.72;100560.90;1732167;81;20982;-78
2021/06/13 09:15:47;;;;;;;6.60;3.20;;;;;;;24.26;55.52;100552.39;1763592;81;21563;-78
2021/06/13 09:18:39;;;;;;;5.47;3.50;;;;;;;24.16;57.15;100543.44;1764198;81;20934;-76
2021/06/13 09:21:15;;;;;;;5.08;3.55;;;;;;;24.08;58.21;100551.52;1763735;81;21779;-76
2021/06/13 09:23:42;;;;;;;4.50;3.45;;;;;;;24.13;58.67;100562.39;1759660;79;21528;-76
2021/06/13 09:26:12;;;;;;;7.45;3.45;;;;;;;24.17;57.56;100561.50;1733042;81;21696;-76
2021/06/13 09:28:45;;;;;;;4.85;3.30;;;;;;;24.09;58.16;100561.63;1732642;82;20917;-72
2021/06/13 09:31:21;;;;;;;5.40;3.37;;;;;;;24.08;58.43;100557.32;1732731;82;20993;-75
2021/06/13 09:33:50;;;;;;;4.95;3.33;;;;;;;24.02;58.85;100552.78;1732469;82;21772;-74
2021/06/13 09:36:22;;;;;;;4.97;3.67;;;;;;;24.04;59.39;100554.23;1732369;82;20952;-72
2021/06/13 09:38:57;;;;;;;4.78;3.95;;;;;;;24.18;59.99;100560.50;1732600;82;20976;-75
2021/06/13 09:41:25;;;;;;;5.50;3.67;;;;;;;24.28;59.08;100546.41;1717225;82;38062;-74
2021/06/13 09:43:57;;;;;;;4.47;4.05;;;;;;;24.33;59.28;100547.96;1733702;82;21460;-74
2021/06/13 09:46:26;;;;;;;5.75;4.15;;;;;;;24.41;59.22;100545.16;1713109;82;21769;-73
2021/06/13 09:49:12;;;;;;;6.50;4.55;;;;;;;24.51;59.85;100546.95;1733623;82;20905;-71
2021/06/13 09:51:50;;;;;;;5.50;4.10;;;;;;;24.60;59.65;100545.79;1691166;84;21013;-72
2021/06/13 09:54:26;;;;;;;4.42;3.95;;;;;;;24.69;60.00;100550.45;1691168;84;21607;-74
2021/06/13 09:57:00;;;;;;;4.40;3.80;;;;;;;24.87;59.66;100557.42;1732254;82;20964;-79
2021/06/13 09:59:28;;;;;;;6.20;4.20;;;;;;;24.93;58.44;100542.03;1731013;82;21763;-70
2021/06/13 10:01:57;;;;;;;4.87;4.08;;;;;;;25.04;59.57;100544.64;1732147;82;20917;-72
2021/06/13 10:04:35;;;;;;;6.92;4.40;;;;;;;25.36;58.04;100545.78;1732332;82;21524;-76
2021/06/13 10:07:23;;;;;;;5.58;4.50;;;;;;;25.77;56.32;100546.02;1731624;82;20996;-76
2021/06/13 10:09:53;;;;;;;6.20;3.30;;;;;;;25.85;54.42;100532.23;1732104;82;20897;-72
2021/06/13 10:12:22;;;;;;;9.08;4.20;;;;;;;25.71;54.94;100537.52;1732072;82;21138;-73
2021/06/13 10:14:51;;;;;;;9.03;3.90;;;;;;;25.52;55.58;100532.17;1732014;82;21017;-77
2021/06/13 10:17:18;;;;;;;5.45;4.00;;;;;;;25.36;56.22;100528.02;1731995;82;21052;-80
2021/06/13 10:19:47;;;;;;;4.97;4.37;;;;;;;25.30;57.91;100523.50;1732084;82;20945;-74
2021/06/13 10:22:16;;;;;;;5.10;3.87;;;;;;;25.28;57.75;100522.36;1732188;82;20845;-70
2021/06/13 10:24:44;;;;;;;7.42;4.20;;;;;;;25.23;58.64;100512.85;1735816;82;21128;-75
2021/06/13 10:27:14;;;;;;;5.20;4.20;;;;;;;25.18;58.78;100513.12;1744990;82;20936;-76
2021/06/13 10:29:44;;;;;;;5.85;4.17;;;;;;;25.17;59.26;100506.19;1745106;82;21601;-72
2021/06/13 10:32:12;;;;;;;3.70;3.40;;;;;;;25.22;60.26;100503.23;1744376;82;21672;-73
2021/06/13 10:34:39;;;;;;;6.42;3.50;;;;;;;25.43;59.21;100508.10;1744548;82;21721;-76
2021/06/13 10:37:10;;;;;;;7.83;3.30;;;;;;;25.62;58.16;100500.17;1745026;82;21030;-76
2021/06/13 10:39:38;;;;;;;3.30;3.00;;;;;;;25.65;56.84;100491.00;1745048;82;20990;-80
2021/06/13 10:42:14;;;;;;;3.58;2.87;;;;;;;25.67;55.19;100501.73;1744886;82;21447;-77
2021/06/13 10:44:49;;;;;;;3.50;3.25;;;;;;;25.68;54.33;100502.55;1745289;82;21531;-77
2021/06/13 10:47:16;;;;;;;6.05;3.40;;;;;;;25.74;54.42;100499.08;1744895;82;21054;-75
2021/06/13 10:50:03;;;;;;;5.10;3.50;;;;;;;25.69;55.85;100498.85;1745008;82;21065;-77
2021/06/13 10:52:33;;;;;;;6.80;3.33;;;;;;;25.84;54.34;100491.52;1744722;82;21505;-79
2021/06/13 10:55:03;;;;;;;4.15;3.50;;;;;;;25.87;54.01;100501.75;1744965;82;21000;-78
2021/06/13 10:57:45;;;;;;;4.15;3.75;;;;;;;25.74;54.56;100501.73;1745392;82;21003;-74
2021/06/13 11:00:26;;;;;;;4.42;3.98;;;;;;;25.64;55.33;100507.45;1745068;82;21008;-75
2021/06/13 11:02:59;;;;;;;4.93;3.70;;;;;;;25.67;54.99;100498.25;1745062;82;21117;-79
2021/06/13 11:05:39;;;;;;;4.45;3.87;;;;;;;25.73;53.91;100504.08;1744876;82;21610;-75
2021/06/13 11:08:07;;;;;;;5.62;4.40;;;;;;;25.58;54.34;100499.47;1744887;82;21534;-76
2021/06/13 11:10:37;;;;;;;7.42;4.17;;;;;;;25.38;55.55;100489.27;1744937;82;20916;-75
2021/06/13 11:13:22;;;;;;;5.15;4.30;;;;;;;25.34;56.16;100488.85;1744951;82;21114;-74
2021/06/13 11:15:50;;;;;;;4.47;4.08;;;;;;;25.29;56.91;100495.29;1745589;82;21106;-77
2021/06/13 11:18:20;;;;;;;5.33;4.55;;;;;;;25.17;57.07;100488.42;1745408;82;20951;-75
2021/06/13 11:20:54;;;;;;;8.75;6.28;;;;;;;25.10;55.42;100500.03;1745512;82;21007;-79
2021/06/13 11:23:28;;;;;;;15.65;2.70;;;;;;;25.02;56.11;100547.48;1745034;82;20975;-73
2021/06/13 11:25:58;;;;;;;14.13;2.37;;;;;;;24.42;54.70;100528.23;1744983;82;20892;-78
2021/06/13 11:28:30;;;;;;;17.67;2.27;;;;;;;23.53;57.81;100527.53;1745060;82;21132;-76
2021/06/13 11:31:13;;;;;;;15.20;2.75;;;;;;;22.81;60.06;100526.66;1742187;82;20999;-71
2021/06/13 11:33:57;;;;;;;13.60;1.75;;;;;;;22.29;62.23;100531.97;1737629;82;21498;-76
2021/06/13 11:36:31;;;;;;;15.60;1.60;;;;;;;21.88;63.96;100539.39;1744866;82;21008;-76